Time;durP1;ratioP1;P1;durP2;ratioP2;P2;SDS_P1;SDS_P2;PMS_P1;PMS_P2;Temp;Humidity;BMP_temperature;BMP_pressure;BME280_temperature;BME280_humidity;BME280_pressure;Samples;Min_cycle;Max_cycle;Signal;HPM_P1;HPM_P2
2023/04/15 00:01:36;;;;;;;18.65;8.90;;;;;;;7.54;100.00;98632.78;5138591;27;20399;-64
2023/04/15 00:04:03;;;;;;;19.25;9.48;;;;;;;7.44;100.00;98636.06;5140725;27;20047;-58
2023/04/15 00:06:30;;;;;;;20.83;10.38;;;;;;;7.40;100.00;98635.22;5140172;28;20054;-60
2023/04/15 00:08:56;;;;;;;17.17;9.00;;;;;;;7.39;100.00;98615.31;5140666;28;20101;-54
2023/04/15 00:11:23;;;;;;;14.25;8.75;;;;;;;7.65;100.00;98617.41;5140176;27;20043;-56
2023/04/15 00:13:49;;;;;;;19.08;10.10;;;;;;;7.66;100.00;98626.38;5140565;28;20200;-64
2023/04/15 00:16:15;;;;;;;18.58;9.45;;;;;;;7.46;100.00;98642.75;5140077;28;20042;-59
2023/04/15 00:18:41;;;;;;;16.80;9.50;;;;;;;7.68;100.00;98637.75;5140318;28;20051;-55
2023/04/15 00:21:06;;;;;;;17.10;8.70;;;;;;;7.50;100.00;98632.69;5140314;27;20136;-57
2023/04/15 00:23:35;;;;;;;18.63;9.70;;;;;;;7.52;100.00;98624.94;5139945;28;20418;-59
2023/04/15 00:26:01;;;;;;;21.60;9.45;;;;;;;7.55;100.00;98624.22;5140327;28;20047;-59
2023/04/15 00:28:27;;;;;;;20.63;9.63;;;;;;;7.53;100.00;98637.44;5140154;28;20058;-61
2023/04/15 00:30:53;;;;;;;17.45;9.70;;;;;;;7.39;100.00;98647.25;5140309;27;20049;-58
2023/04/15 00:33:19;;;;;;;18.27;9.45;;;;;;;7.51;100.00;98639.72;5139851;27;20055;-58
2023/04/15 00:35:45;;;;;;;18.13;9.20;;;;;;;7.50;100.00;98659.97;5140198;28;20065;-62
2023/04/15 00:38:11;;;;;;;12.05;8.68;;;;;;;7.47;100.00;98651.72;5139883;28;20054;-64
2023/04/15 00:40:38;;;;;;;18.10;8.77;;;;;;;7.33;100.00;98679.47;5140192;28;20142;-66
2023/04/15 00:43:04;;;;;;;16.55;9.40;;;;;;;7.45;100.00;98676.59;5139664;27;20066;-59
2023/04/15 00:45:30;;;;;;;16.75;9.30;;;;;;;7.57;100.00;98680.38;5140102;28;20057;-62
2023/04/15 00:47:56;;;;;;;18.65;9.18;;;;;;;7.50;100.00;98697.38;5139941;28;20327;-57
2023/04/15 00:50:22;;;;;;;15.85;8.73;;;;;;;7.40;100.00;98704.16;5139583;28;20079;-58
2023/04/15 00:52:48;;;;;;;15.85;8.40;;;;;;;7.53;100.00;98710.28;5139819;28;20383;-65
2023/04/15 00:55:14;;;;;;;13.68;8.23;;;;;;;7.39;100.00;98694.38;5139484;28;20061;-63
2023/04/15 00:57:41;;;;;;;16.30;8.77;;;;;;;7.49;100.00;98696.56;5139657;27;20464;-56
2023/04/15 01:00:10;;;;;;;16.67;8.98;;;;;;;7.77;100.00;98704.59;5139415;28;20051;-62
2023/04/15 01:02:36;;;;;;;14.65;8.27;;;;;;;7.54;100.00;98706.44;5139662;28;20059;-60
2023/04/15 01:05:05;;;;;;;13.48;8.50;;;;;;;7.39;100.00;98696.31;5139394;28;20371;-60
2023/04/15 01:07:31;;;;;;;15.93;8.75;;;;;;;7.57;100.00;98685.84;5139763;28;20317;-63
2023/04/15 01:09:57;;;;;;;16.17;8.60;;;;;;;7.52;100.00;98673.25;5139260;28;20146;-56
2023/04/15 01:12:25;;;;;;;20.98;8.55;;;;;;;7.36;100.00;98678.72;5139311;27;20047;-63
2023/04/15 01:14:52;;;;;;;14.73;9.00;;;;;;;7.32;100.00;98656.84;5139385;28;20138;-55
2023/04/15 01:17:19;;;;;;;17.65;9.15;;;;;;;7.57;100.00;98686.63;5139104;28;20495;-56
2023/04/15 01:19:45;;;;;;;12.23;7.93;;;;;;;7.57;100.00;98696.75;5139410;28;20161;-54
2023/04/15 01:22:11;;;;;;;16.85;9.05;;;;;;;7.61;100.00;98700.34;5139220;28;20137;-58
2023/04/15 01:24:37;;;;;;;11.98;7.32;;;;;;;7.49;100.00;98695.78;5139363;27;20063;-54
2023/04/15 01:27:04;;;;;;;18.65;9.55;;;;;;;7.52;100.00;98684.94;5139122;27;20133;-60
2023/04/15 01:29:31;;;;;;;12.63;8.23;;;;;;;7.54;100.00;98704.47;5139368;28;20047;-64
2023/04/15 01:31:57;;;;;;;16.08;8.65;;;;;;;7.74;100.00;98690.88;5139031;28;20059;-64
2023/04/15 01:34:23;;;;;;;12.40;7.63;;;;;;;7.55;100.00;98703.31;5139345;28;20066;-57
2023/04/15 01:36:49;;;;;;;15.65;8.38;;;;;;;7.65;100.00;98693.00;5138835;28;20050;-57
2023/04/15 01:39:15;;;;;;;12.30;7.47;;;;;;;7.66;100.00;98697.31;5139315;28;20070;-55
2023/04/15 01:41:41;;;;;;;17.08;8.77;;;;;;;7.78;100.00;98678.09;5138746;28;20071;-60
2023/04/15 01:44:08;;;;;;;14.77;8.50;;;;;;;7.47;100.00;98690.69;5138554;27;20058;-64
2023/04/15 01:46:35;;;;;;;14.18;7.72;;;;;;;7.66;100.00;98659.13;5139010;28;20207;-58
2023/04/15 01:49:01;;;;;;;11.38;7.35;;;;;;;7.46;100.00;98685.56;5138660;28;20055;-57
2023/04/15 01:51:27;;;;;;;19.70;8.57;;;;;;;7.43;100.00;98670.72;5139161;28;20099;-61
2023/04/15 01:53:55;;;;;;;14.98;7.93;;;;;;;7.43;100.00;98670.72;5138792;28;20339;-63
2023/04/15 01:56:22;;;;;;;16.92;8.93;;;;;;;7.52;100.00;98678.69;5138927;27;20055;-56
2023/04/15 01:58:48;;;;;;;14.07;8.70;;;;;;;7.43;100.00;98681.63;5138598;28;20057;-63
2023/04/15 02:01:15;;;;;;;16.05;8.43;;;;;;;7.56;100.00;98671.38;5138923;28;20051;-59
2023/04/15 02:03:41;;;;;;;16.52;8.63;;;;;;;7.41;100.00;98658.59;5138410;28;20054;-57
2023/04/15 02:06:07;;;;;;;15.50;8.13;;;;;;;7.34;100.00;98653.78;5138783;28;20062;-63
2023/04/15 02:08:33;;;;;;;13.68;8.55;;;;;;;7.44;100.00;98631.41;5138367;27;20043;-63
2023/04/15 02:11:00;;;;;;;13.82;8.18;;;;;;;7.32;100.00;98653.31;5138787;27;20058;-57
2023/04/15 02:13:26;;;;;;;15.23;7.82;;;;;;;7.40;100.00;98643.38;5138466;28;20065;-59
2023/04/15 02:15:53;;;;;;;17.33;7.90;;;;;;;7.46;100.00;98641.94;5138438;28;20396;-57
2023/04/15 02:18:20;;;;;;;13.73;8.18;;;;;;;7.59;100.00;98623.50;5138470;27;20080;-57
2023/04/15 02:20:47;;;;;;;11.07;7.35;;;;;;;7.25;100.00;98618.50;5138122;28;20150;-64
2023/04/15 02:23:13;;;;;;;14.25;8.32;;;;;;;7.27;100.00;98597.16;5137751;27;20328;-63
2023/04/15 02:25:39;;;;;;;15.70;7.72;;;;;;;7.35;100.00;98611.72;5137772;27;20139;-55
2023/04/15 02:28:05;;;;;;;13.45;8.48;;;;;;;7.54;100.00;98621.88;5138310;28;20076;-62
2023/04/15 02:30:32;;;;;;;13.70;7.75;;;;;;;7.34;100.00;98601.97;5138124;28;20051;-64
2023/04/15 02:32:57;;;;;;;15.38;7.78;;;;;;;7.40;100.00;98603.25;5138359;28;20145;-56
2023/04/15 02:35:24;;;;;;;17.83;7.68;;;;;;;7.48;100.00;98596.00;5137941;28;20103;-57
2023/04/15 02:37:51;;;;;;;17.05;8.32;;;;;;;7.42;100.00;98608.34;5138322;28;20058;-63
2023/04/15 02:40:17;;;;;;;12.90;6.95;;;;;;;7.34;100.00;98609.34;5137820;27;20150;-63
2023/04/15 02:42:43;;;;;;;15.35;7.13;;;;;;;7.44;100.00;98603.34;5137730;28;20404;-60
2023/04/15 02:45:11;;;;;;;15.07;8.40;;;;;;;7.54;100.00;98600.81;5138063;27;20142;-62
2023/04/15 02:47:40;;;;;;;12.80;7.68;;;;;;;7.32;100.00;98599.56;5137694;28;20423;-56
2023/04/15 02:50:08;;;;;;;17.00;8.00;;;;;;;7.14;100.00;98584.78;5138034;28;20082;-55
2023/04/15 02:52:35;;;;;;;13.25;7.78;;;;;;;7.29;100.00;98564.84;5137843;28;20054;-63
2023/04/15 02:55:01;;;;;;;20.02;8.25;;;;;;;7.50;100.00;98580.88;5138069;28;20047;-60
2023/04/15 02:57:27;;;;;;;12.60;7.55;;;;;;;7.29;100.00;98591.31;5137623;28;20051;-59
2023/04/15 02:59:53;;;;;;;14.48;7.57;;;;;;;7.43;100.00;98583.47;5137868;28;20057;-63
2023/04/15 03:02:19;;;;;;;12.32;7.88;;;;;;;7.36;100.00;98594.19;5137530;27;20047;-65
2023/04/15 03:04:45;;;;;;;16.52;6.82;;;;;;;7.17;100.00;98569.66;5137906;28;20142;-65
2023/04/15 03:07:11;;;;;;;12.27;6.95;;;;;;;7.19;100.00;98568.13;5137480;28;20047;-61
2023/04/15 03:09:39;;;;;;;13.85;6.88;;;;;;;7.36;100.00;98564.19;5137857;28;20058;-58
2023/04/15 03:12:05;;;;;;;12.77;7.85;;;;;;;7.43;100.00;98594.38;5137714;27;20100;-60
2023/04/15 03:14:31;;;;;;;14.23;7.40;;;;;;;7.35;100.00;98598.06;5137493;28;20142;-65
2023/04/15 03:16:58;;;;;;;11.07;7.30;;;;;;;7.41;100.00;98576.78;5137440;28;20057;-64
2023/04/15 03:19:24;;;;;;;10.80;7.03;;;;;;;7.42;100.00;98598.22;5137308;28;20047;-58
2023/04/15 03:21:50;;;;;;;18.52;8.27;;;;;;;7.59;100.00;98607.94;5137431;28;20147;-66
2023/04/15 03:24:16;;;;;;;19.88;8.30;;;;;;;7.46;100.00;98607.28;5137522;28;20059;-65
2023/04/15 03:26:43;;;;;;;15.00;8.38;;;;;;;7.45;100.00;98605.69;5137657;28;20145;-64
2023/04/15 03:29:09;;;;;;;13.82;7.82;;;;;;;7.40;100.00;98607.94;5137303;28;20138;-64
2023/04/15 03:31:35;;;;;;;13.40;7.47;;;;;;;7.39;100.00;98614.50;5137511;28;20145;-57
2023/04/15 03:34:01;;;;;;;15.30;7.35;;;;;;;7.08;100.00;98597.88;5137191;28;20090;-57
2023/04/15 03:36:28;;;;;;;12.23;7.57;;;;;;;7.36;100.00;98605.09;5140702;27;20142;-60
2023/04/15 03:38:55;;;;;;;11.73;7.15;;;;;;;7.34;100.00;98591.06;5140777;27;20050;-59
2023/04/15 03:41:21;;;;;;;15.23;7.80;;;;;;;7.34;100.00;98593.00;5140938;28;20374;-62
2023/04/15 03:43:48;;;;;;;13.38;7.70;;;;;;;7.63;100.00;98597.91;5140883;28;20078;-63
2023/04/15 03:46:14;;;;;;;8.82;6.47;;;;;;;7.31;100.00;98625.28;5140703;28;20078;-64
2023/04/15 03:48:40;;;;;;;15.35;7.75;;;;;;;7.48;100.00;98612.38;5140744;28;20082;-65
2023/04/15 03:51:06;;;;;;;11.82;6.60;;;;;;;7.11;100.00;98599.13;5140593;28;20051;-59
2023/04/15 03:53:32;;;;;;;11.43;6.90;;;;;;;7.18;100.00;98602.00;5140863;27;20093;-60
2023/04/15 03:55:58;;;;;;;13.15;6.90;;;;;;;7.36;100.00;98583.28;5140636;28;20146;-59
2023/04/15 03:58:24;;;;;;;12.57;7.47;;;;;;;7.49;100.00;98601.09;5140901;28;20051;-63
2023/04/15 04:00:51;;;;;;;11.52;6.18;;;;;;;7.32;100.00;98613.22;5140382;28;20092;-60
2023/04/15 04:03:17;;;;;;;16.08;7.07;;;;;;;7.51;100.00;98614.41;5140743;27;20058;-64
2023/04/15 04:05:43;;;;;;;11.65;6.78;;;;;;;7.34;100.00;98615.59;5140326;28;20080;-65
2023/04/15 04:08:12;;;;;;;12.85;7.28;;;;;;;7.31;100.00;98605.41;5140415;27;20137;-60
2023/04/15 04:10:38;;;;;;;10.77;6.22;;;;;;;7.44;100.00;98612.31;5140283;28;20069;-59
2023/04/15 04:13:04;;;;;;;13.27;6.97;;;;;;;7.51;100.00;98617.13;5140465;28;20047;-62
2023/04/15 04:15:30;;;;;;;11.98;6.70;;;;;;;7.40;100.00;98613.38;5140199;27;20473;-64
2023/04/15 04:17:57;;;;;;;10.70;6.50;;;;;;;7.39;100.00;98598.16;5140150;28;20055;-60
2023/04/15 04:20:23;;;;;;;12.07;6.78;;;;;;;7.45;100.00;98605.69;5140443;28;20137;-64
2023/04/15 04:22:49;;;;;;;13.45;6.85;;;;;;;7.42;100.00;98603.69;5139949;27;20101;-61
2023/04/15 04:25:15;;;;;;;15.95;7.22;;;;;;;7.30;100.00;98584.75;5140461;27;20369;-60
2023/04/15 04:27:41;;;;;;;13.60;7.03;;;;;;;7.40;100.00;98589.63;5140064;27;20051;-57
2023/04/15 04:30:08;;;;;;;10.98;6.88;;;;;;;7.20;100.00;98579.84;5140296;28;20077;-63
2023/04/15 04:32:34;;;;;;;11.52;7.05;;;;;;;7.39;100.00;98588.03;5139920;27;20055;-64
2023/04/15 04:35:01;;;;;;;12.25;6.25;;;;;;;7.42;100.00;98603.69;5140347;27;20074;-65
2023/04/15 04:37:26;;;;;;;18.15;6.25;;;;;;;7.25;100.00;98609.53;5139748;27;20127;-67
2023/04/15 04:39:52;;;;;;;9.23;6.25;;;;;;;7.21;100.00;98595.06;5140014;27;20088;-65
2023/04/15 04:42:18;;;;;;;11.55;6.60;;;;;;;7.08;100.00;98600.63;5139928;27;20142;-64
2023/04/15 04:44:44;;;;;;;10.32;6.20;;;;;;;7.30;100.00;98595.66;5139947;28;20128;-62
2023/04/15 04:47:10;;;;;;;10.50;5.90;;;;;;;7.56;100.00;98584.09;5139162;27;20170;-59
2023/04/15 04:49:36;;;;;;;11.93;6.20;;;;;;;7.23;100.00;98615.38;5139795;28;20447;-56
2023/04/15 04:52:03;;;;;;;11.05;6.63;;;;;;;7.29;100.00;98610.41;5139935;28;20070;-63
2023/04/15 04:54:30;;;;;;;15.02;5.68;;;;;;;7.35;100.00;98613.66;5139627;28;20061;-56
2023/04/15 04:56:56;;;;;;;10.45;5.97;;;;;;;7.52;100.00;98630.38;5139933;28;20043;-64
2023/04/15 04:59:22;;;;;;;9.63;5.70;;;;;;;7.16;100.00;98615.19;5139462;28;20053;-64
2023/04/15 05:01:48;;;;;;;12.15;5.50;;;;;;;7.38;100.00;98616.47;5139934;28;20099;-65
2023/04/15 05:04:14;;;;;;;9.10;5.55;;;;;;;7.36;100.00;98616.00;5139313;28;20149;-59
2023/04/15 05:06:40;;;;;;;8.48;5.38;;;;;;;7.29;100.00;98622.09;5139122;28;20071;-59
2023/04/15 05:09:07;;;;;;;10.10;5.50;;;;;;;7.30;100.00;98622.91;5139562;28;20143;-63
2023/04/15 05:11:33;;;;;;;10.88;6.07;;;;;;;7.48;100.00;98656.81;5139542;28;20142;-60
2023/04/15 05:14:01;;;;;;;8.70;5.30;;;;;;;7.19;100.00;98665.50;5139423;28;20055;-62
2023/04/15 05:16:26;;;;;;;9.40;5.90;;;;;;;7.53;100.00;98653.00;5139396;27;20058;-64
2023/04/15 05:18:52;;;;;;;11.85;5.47;;;;;;;7.09;100.00;98677.72;5139779;28;20047;-61
2023/04/15 05:21:19;;;;;;;8.73;5.63;;;;;;;7.42;100.00;98669.13;5140433;28;20058;-59
2023/04/15 05:23:45;;;;;;;8.00;4.85;;;;;;;7.42;100.00;98684.72;5139970;28;20055;-66
2023/04/15 05:26:11;;;;;;;9.30;5.10;;;;;;;7.54;100.00;98662.78;5139026;27;20423;-62
2023/04/15 05:28:37;;;;;;;10.27;4.50;;;;;;;7.54;100.00;98693.56;5139368;28;20055;-62
2023/04/15 05:31:03;;;;;;;19.73;5.40;;;;;;;7.49;100.00;98702.00;5138907;27;20043;-61
2023/04/15 05:33:29;;;;;;;12.25;5.03;;;;;;;7.36;100.00;98716.91;5139420;27;20051;-67
2023/04/15 05:35:55;;;;;;;10.15;4.70;;;;;;;7.45;100.00;98695.69;5138746;28;20192;-63
2023/04/15 05:38:21;;;;;;;9.52;4.13;;;;;;;7.85;100.00;98730.09;5138798;28;20403;-59
2023/04/15 05:40:47;;;;;;;10.80;4.97;;;;;;;7.74;100.00;98740.00;5138897;28;20062;-62
2023/04/15 05:43:14;;;;;;;7.93;4.93;;;;;;;7.45;100.00;98752.97;5138681;28;20088;-57
2023/04/15 05:45:40;;;;;;;10.27;4.95;;;;;;;7.77;100.00;98758.38;5139004;28;20043;-63
2023/04/15 05:48:07;;;;;;;15.30;4.95;;;;;;;7.70;100.00;98774.59;5138846;28;20057;-65
2023/04/15 05:50:33;;;;;;;11.95;4.82;;;;;;;7.80;100.00;98784.97;5138956;27;20050;-67
2023/04/15 05:52:59;;;;;;;10.73;4.55;;;;;;;7.87;100.00;98798.78;5138720;28;20499;-61
2023/04/15 05:55:26;;;;;;;6.72;4.70;;;;;;;8.04;100.00;98796.78;5139010;28;20139;-66
2023/04/15 05:57:52;;;;;;;8.07;3.80;;;;;;;7.60;100.00;98805.94;5137918;27;20065;-65
2023/04/15 06:00:19;;;;;;;9.73;4.10;;;;;;;7.69;100.00;98825.63;5138242;28;20141;-66
2023/04/15 06:02:45;;;;;;;11.10;4.15;;;;;;;7.96;100.00;98802.09;5138364;28;20051;-58
2023/04/15 06:05:11;;;;;;;8.98;4.10;;;;;;;8.22;100.00;98822.53;5138851;27;20054;-63
2023/04/15 06:07:37;;;;;;;10.60;4.07;;;;;;;7.82;100.00;98850.09;5138368;27;20141;-58
2023/04/15 06:10:05;;;;;;;7.75;4.35;;;;;;;7.88;100.00;98835.81;5138535;28;20278;-63
2023/04/15 06:12:31;;;;;;;5.70;3.47;;;;;;;7.63;100.00;98837.16;5138351;27;20408;-61
2023/04/15 06:14:57;;;;;;;9.90;4.00;;;;;;;7.75;100.00;98870.59;5138231;27;20057;-66
2023/04/15 06:17:24;;;;;;;6.05;3.67;;;;;;;7.50;100.00;98870.00;5138520;28;20047;-61
2023/04/15 06:19:54;;;;;;;4.60;2.60;;;;;;;7.29;100.00;98864.78;5138272;27;20051;-66
2023/04/15 06:22:20;;;;;;;5.63;3.47;;;;;;;7.63;100.00;98856.25;5138297;28;20324;-65
2023/04/15 06:24:46;;;;;;;5.15;3.65;;;;;;;7.55;100.00;98847.91;5138144;28;20138;-59
2023/04/15 06:27:12;;;;;;;7.78;4.05;;;;;;;7.84;100.00;98856.00;5138482;28;20157;-65
2023/04/15 06:29:38;;;;;;;11.38;4.05;;;;;;;7.81;100.00;98884.78;5138031;28;20476;-60
2023/04/15 06:32:04;;;;;;;23.25;3.80;;;;;;;7.77;100.00;98881.97;5138505;28;20135;-60
2023/04/15 06:34:31;;;;;;;5.45;4.07;;;;;;;8.06;100.00;98858.06;5138192;28;20331;-67
2023/04/15 06:36:57;;;;;;;10.18;4.05;;;;;;;7.78;100.00;98869.91;5138099;28;20043;-65
2023/04/15 06:39:23;;;;;;;5.53;3.42;;;;;;;7.74;100.00;98849.13;5138192;28;20488;-66
2023/04/15 06:41:49;;;;;;;12.73;4.22;;;;;;;8.38;100.00;98827.97;5137848;27;20133;-66
2023/04/15 06:44:15;;;;;;;8.52;3.92;;;;;;;8.01;100.00;98899.28;5137869;27;20050;-62
2023/04/15 06:46:41;;;;;;;8.07;4.25;;;;;;;7.86;100.00;98895.41;5137634;28;20427;-60
2023/04/15 06:49:07;;;;;;;10.45;3.60;;;;;;;7.94;100.00;98891.72;5137991;28;20087;-63
2023/04/15 06:51:35;;;;;;;5.40;3.47;;;;;;;8.20;100.00;98920.41;5137685;27;20061;-59
2023/04/15 06:54:04;;;;;;;7.28;3.88;;;;;;;8.08;100.00;98942.34;5138016;28;20051;-60
2023/04/15 06:56:30;;;;;;;6.82;3.42;;;;;;;7.77;100.00;98965.78;5137602;28;20168;-64
2023/04/15 06:58:56;;;;;;;4.18;3.17;;;;;;;7.65;100.00;98993.91;5137995;28;20120;-62
2023/04/15 07:01:22;;;;;;;4.85;3.58;;;;;;;7.87;100.00;98983.56;5137359;28;20047;-61
2023/04/15 07:03:48;;;;;;;3.63;2.92;;;;;;;7.71;100.00;98999.91;5137655;28;20190;-60
2023/04/15 07:06:14;;;;;;;6.68;3.72;;;;;;;7.69;100.00;99008.44;5137684;28;20358;-59
2023/04/15 07:08:41;;;;;;;10.00;3.30;;;;;;;8.01;100.00;99011.22;5137715;28;20047;-62
2023/04/15 07:11:07;;;;;;;5.43;3.25;;;;;;;7.89;100.00;99017.53;5137238;27;20058;-64
2023/04/15 07:13:33;;;;;;;5.45;2.80;;;;;;;7.59;100.00;99044.41;5137326;27;20502;-60
2023/04/15 07:15:59;;;;;;;5.80;3.60;;;;;;;7.49;100.00;99034.78;5137575;28;20138;-66
2023/04/15 07:18:25;;;;;;;5.03;2.97;;;;;;;7.66;100.00;99021.97;5137488;28;20126;-61
2023/04/15 07:20:51;;;;;;;10.57;3.20;;;;;;;7.74;100.00;99037.44;5137600;27;20537;-61
2023/04/15 07:23:17;;;;;;;7.50;3.28;;;;;;;7.89;100.00;99020.28;5137097;28;20143;-61
2023/04/15 07:25:44;;;;;;;5.93;3.35;;;;;;;7.93;100.00;99034.00;5137699;28;20076;-65
2023/04/15 07:28:10;;;;;;;8.95;3.25;;;;;;;7.85;100.00;99048.63;5137162;28;20111;-63
2023/04/15 07:30:36;;;;;;;5.53;3.15;;;;;;;8.09;100.00;99048.47;5137660;27;20087;-67
2023/04/15 07:33:02;;;;;;;6.05;3.33;;;;;;;7.86;100.00;99061.13;5137104;27;20407;-59
2023/04/15 07:35:28;;;;;;;11.15;3.50;;;;;;;7.70;100.00;99050.19;5136983;28;20429;-64
2023/04/15 07:37:55;;;;;;;6.40;3.15;;;;;;;7.57;100.00;99045.91;5136987;27;20055;-62
2023/04/15 07:40:21;;;;;;;11.00;3.35;;;;;;;7.76;100.00;99038.66;5137177;28;20058;-64
2023/04/15 07:42:48;;;;;;;16.60;3.33;;;;;;;7.87;100.00;99032.69;5137286;28;20051;-58
2023/04/15 07:45:15;;;;;;;7.30;3.58;;;;;;;7.91;100.00;99086.22;5137069;28;20051;-67
2023/04/15 07:47:41;;;;;;;9.18;3.55;;;;;;;7.78;100.00;99069.13;5137255;28;20047;-64
2023/04/15 07:50:09;;;;;;;5.68;2.85;;;;;;;7.68;100.00;99077.81;5136875;28;20062;-61
2023/04/15 07:52:38;;;;;;;10.02;2.90;;;;;;;7.39;100.00;99092.56;5137183;27;20051;-65
2023/04/15 07:55:05;;;;;;;10.15;3.35;;;;;;;7.67;100.00;99075.44;5136792;28;20093;-64
2023/04/15 07:57:30;;;;;;;6.22;3.65;;;;;;;7.92;100.00;99087.03;5137206;27;20068;-61
2023/04/15 07:59:57;;;;;;;5.00;3.10;;;;;;;7.95;100.00;99098.03;5136683;28;20078;-62
2023/04/15 08:02:23;;;;;;;5.18;2.75;;;;;;;7.64;100.00;99111.59;5136915;28;20051;-57
2023/04/15 08:04:49;;;;;;;11.85;3.45;;;;;;;7.61;100.00;99101.38;5136893;28;20061;-59
2023/04/15 08:07:15;;;;;;;6.07;3.33;;;;;;;7.73;100.00;99113.03;5136797;28;20358;-62
2023/04/15 08:09:41;;;;;;;6.90;3.08;;;;;;;8.23;100.00;99097.19;5136930;28;20047;-61
2023/04/15 08:12:11;;;;;;;7.50;3.55;;;;;;;8.43;100.00;99106.31;5136735;28;20404;-60
2023/04/15 08:14:37;;;;;;;7.45;3.65;;;;;;;8.33;100.00;99126.75;5136563;28;20332;-65
2023/04/15 08:17:04;;;;;;;6.03;3.03;;;;;;;8.81;100.00;99121.31;5136623;28;20043;-66
2023/04/15 08:19:30;;;;;;;4.25;3.47;;;;;;;8.98;100.00;99118.22;5136969;28;20388;-61
2023/04/15 08:21:56;;;;;;;14.85;4.05;;;;;;;9.54;100.00;99133.53;5137250;27;20054;-65
2023/04/15 08:24:22;;;;;;;7.05;3.33;;;;;;;9.42;100.00;99140.69;5140357;28;20051;-60
2023/04/15 08:26:48;;;;;;;7.03;3.33;;;;;;;8.89;98.06;99143.00;5139971;28;20108;-66
2023/04/15 08:29:14;;;;;;;10.00;3.55;;;;;;;9.06;100.00;99144.56;5140320;27;20047;-66
2023/04/15 08:31:40;;;;;;;10.35;3.80;;;;;;;8.80;100.00;99139.66;5139867;28;20196;-57
2023/04/15 08:34:08;;;;;;;6.40;3.17;;;;;;;9.00;100.00;99142.44;5140034;28;20078;-57
2023/04/15 08:36:34;;;;;;;5.72;3.38;;;;;;;9.19;100.00;99140.56;5139860;28;20426;-60
2023/04/15 08:39:00;;;;;;;7.20;3.72;;;;;;;9.15;100.00;99149.84;5140000;28;20051;-60
2023/04/15 08:41:34;;;;;;;7.10;3.70;;;;;;;8.78;100.00;99146.63;5140025;27;20412;-60
2023/04/15 08:44:03;;;;;;;10.98;4.00;;;;;;;9.21;100.00;99139.44;5139671;28;20051;-58
2023/04/15 08:46:30;;;;;;;9.25;3.83;;;;;;;8.95;100.00;99157.97;5140196;28;20350;-64
2023/04/15 08:48:57;;;;;;;7.38;3.70;;;;;;;8.70;100.00;99151.13;5140302;28;20112;-64
2023/04/15 08:51:24;;;;;;;10.50;3.58;;;;;;;8.61;100.00;99170.41;5142056;28;20070;-60
2023/04/15 08:53:51;;;;;;;8.70;3.10;;;;;;;8.24;100.00;99158.88;5140539;28;20420;-67
2023/04/15 08:56:19;;;;;;;7.28;3.80;;;;;;;8.54;100.00;99151.13;5139493;28;20146;-63
2023/04/15 08:58:46;;;;;;;9.45;3.75;;;;;;;8.34;100.00;99144.72;5139441;27;20086;-65
2023/04/15 09:01:12;;;;;;;11.85;3.85;;;;;;;8.54;100.00;99156.56;5139524;27;20137;-57
2023/04/15 09:03:39;;;;;;;12.98;4.22;;;;;;;8.55;100.00;99146.44;5139506;28;20055;-60
2023/04/15 09:06:05;;;;;;;5.30;3.63;;;;;;;8.59;100.00;99150.84;5139405;28;20498;-64
2023/04/15 09:08:33;;;;;;;8.85;3.35;;;;;;;8.35;100.00;99137.31;5139624;28;20050;-64
2023/04/15 09:11:00;;;;;;;9.48;4.03;;;;;;;8.46;100.00;99132.94;5139316;27;20416;-65
2023/04/15 09:13:26;;;;;;;7.68;3.97;;;;;;;8.86;100.00;99142.91;5139445;28;20057;-61
2023/04/15 09:15:52;;;;;;;11.48;4.13;;;;;;;8.64;100.00;99149.81;5139146;28;20043;-65
2023/04/15 09:18:28;;;;;;;9.52;4.15;;;;;;;8.29;100.00;99141.44;5139647;28;20307;-64
2023/04/15 09:20:54;;;;;;;8.55;3.88;;;;;;;8.40;100.00;99135.16;5139037;28;20051;-60
2023/04/15 09:23:20;;;;;;;8.43;4.43;;;;;;;8.79;100.00;99135.31;5139252;28;20073;-57
2023/04/15 09:25:48;;;;;;;7.93;4.45;;;;;;;8.85;100.00;99155.78;5139110;28;20138;-60
2023/04/15 09:28:14;;;;;;;7.47;4.32;;;;;;;8.83;100.00;99147.16;5139227;27;20078;-56
2023/04/15 09:30:44;;;;;;;13.13;4.00;;;;;;;8.81;100.00;99141.25;5139239;28;20078;-61
2023/04/15 09:33:14;;;;;;;8.02;4.13;;;;;;;8.94;100.00;99141.94;5138769;27;20062;-62
2023/04/15 09:35:40;;;;;;;6.10;3.85;;;;;;;8.70;100.00;99151.91;5139198;28;20141;-61
2023/04/15 09:38:08;;;;;;;4.65;3.50;;;;;;;8.29;100.00;99146.91;5138911;28;20047;-58
2023/04/15 09:40:36;;;;;;;6.70;3.67;;;;;;;8.48;100.00;99147.84;5139067;28;20148;-60
2023/04/15 09:43:03;;;;;;;9.02;3.97;;;;;;;8.43;100.00;99158.22;5138639;28;20051;-61
2023/04/15 09:45:30;;;;;;;8.05;4.05;;;;;;;8.57;100.00;99136.75;5139042;27;20344;-65
2023/04/15 09:47:57;;;;;;;4.93;3.42;;;;;;;8.54;100.00;99148.38;5138522;27;20463;-63
2023/04/15 09:50:28;;;;;;;7.70;4.13;;;;;;;8.42;100.00;99153.91;5138818;28;20377;-59
2023/04/15 09:52:54;;;;;;;8.43;3.88;;;;;;;8.46;100.00;99136.47;5138818;28;20055;-57
2023/04/15 09:55:20;;;;;;;10.05;4.18;;;;;;;8.54;100.00;99153.06;5138600;27;20051;-66
2023/04/15 09:57:46;;;;;;;5.40;3.75;;;;;;;8.58;100.00;99165.66;5138759;28;20047;-62
2023/04/15 10:00:14;;;;;;;9.77;3.72;;;;;;;8.38;100.00;99151.09;5138624;28;20327;-58
2023/04/15 10:02:41;;;;;;;6.72;4.32;;;;;;;8.63;100.00;99154.47;5138780;28;20078;-56
2023/04/15 10:05:09;;;;;;;11.90;3.47;;;;;;;8.78;100.00;99157.56;5138395;28;20428;-64
2023/04/15 10:07:36;;;;;;;8.60;4.60;;;;;;;8.63;100.00;99176.34;5138812;27;20127;-60
2023/04/15 10:10:04;;;;;;;6.53;3.75;;;;;;;8.60;100.00;99154.38;5138387;28;20048;-65
2023/04/15 10:12:32;;;;;;;7.25;4.15;;;;;;;8.49;100.00;99157.63;5138824;28;20089;-60
2023/04/15 10:15:03;;;;;;;19.00;4.28;;;;;;;8.45;100.00;99164.94;5138129;27;20065;-57
2023/04/15 10:17:34;;;;;;;9.90;5.45;;;;;;;8.48;100.00;99150.56;5138254;28;20059;-62
2023/04/15 10:20:01;;;;;;;12.32;5.10;;;;;;;8.15;100.00;99152.78;5138514;28;20078;-64
2023/04/15 10:22:27;;;;;;;9.45;4.35;;;;;;;8.31;100.00;99148.16;5138192;27;20111;-61
2023/04/15 10:24:55;;;;;;;5.65;3.35;;;;;;;8.09;100.00;99154.16;5138409;28;20316;-61
2023/04/15 10:27:21;;;;;;;8.68;4.32;;;;;;;8.19;100.00;99146.25;5138168;28;20047;-64
2023/04/15 10:29:48;;;;;;;7.15;3.95;;;;;;;8.28;100.00;99153.50;5138503;28;20051;-56
2023/04/15 10:32:18;;;;;;;11.50;4.10;;;;;;;8.11;100.00;99146.44;5138063;28;20386;-61
2023/04/15 10:34:45;;;;;;;5.25;3.50;;;;;;;8.45;100.00;99136.81;5138314;27;20134;-60
2023/04/15 10:37:11;;;;;;;10.75;3.90;;;;;;;8.28;100.00;99148.06;5138041;28;20367;-67
2023/04/15 10:39:42;;;;;;;5.97;3.80;;;;;;;8.62;100.00;99141.16;5138433;27;20050;-65
2023/04/15 10:42:10;;;;;;;5.03;3.72;;;;;;;8.30;100.00;99143.84;5138133;28;20191;-60
2023/04/15 10:44:38;;;;;;;5.40;2.88;;;;;;;8.12;100.00;99137.88;5137234;27;20073;-66
2023/04/15 10:47:10;;;;;;;5.60;3.72;;;;;;;8.33;100.00;99143.13;5138173;27;20047;-60
2023/04/15 10:49:44;;;;;;;5.55;3.45;;;;;;;8.62;100.00;99136.47;5137906;28;20047;-64
2023/04/15 10:52:11;;;;;;;;;;;;;;;8.37;100.00;99152.22;5138526;28;20051;-60
2023/04/15 10:54:38;;;;;;;10.82;3.80;;;;;;;8.53;100.00;99152.28;5137760;28;19923;-64
2023/04/15 10:57:12;;;;;;;8.60;3.75;;;;;;;8.71;100.00;99147.25;5138034;28;20066;-66
2023/04/15 10:59:59;;;;;;;6.32;4.03;;;;;;;8.63;100.00;99148.19;5137590;27;20043;-63
2023/04/15 11:02:38;;;;;;;5.35;3.58;;;;;;;8.98;99.55;99161.97;5137843;28;20111;-66
2023/04/15 11:05:04;;;;;;;15.48;4.05;;;;;;;9.32;98.52;99163.13;5137677;28;20058;-62
2023/04/15 11:07:36;;;;;;;9.63;4.25;;;;;;;8.98;98.45;99169.38;5137484;28;20047;-63
2023/04/15 11:10:02;;;;;;;8.38;3.45;;;;;;;8.85;96.97;99163.19;5137646;27;20055;-61
2023/04/15 11:12:34;;;;;;;5.55;3.28;;;;;;;8.89;94.99;99170.31;5137560;28;20065;-65
2023/04/15 11:15:27;;;;;;;5.43;3.38;;;;;;;9.14;93.84;99176.41;5137308;27;20190;-59
2023/04/15 11:17:53;;;;;;;8.27;3.30;;;;;;;8.86;94.29;99157.41;5137363;28;20061;-63
2023/04/15 11:20:19;;;;;;;6.93;3.65;;;;;;;8.98;94.29;99164.69;5137704;28;20343;-66
2023/04/15 11:22:47;;;;;;;5.43;3.28;;;;;;;9.09;92.32;99170.41;5137376;27;20086;-61
2023/04/15 11:25:22;;;;;;;6.50;3.60;;;;;;;9.46;92.68;99168.13;5137208;28;20057;-59
2023/04/15 11:27:48;;;;;;;9.90;3.97;;;;;;;9.64;91.11;99169.31;5137562;28;20305;-64